Time;durP1;ratioP1;P1;durP2;ratioP2;P2;SDS_P1;SDS_P2;PMS_P1;PMS_P2;Temp;Humidity;BMP_temperature;BMP_pressure;BME280_temperature;BME280_humidity;BME280_pressure;Samples;Min_cycle;Max_cycle;Signal;HPM_P1;HPM_P2
2021/04/25 00:00:58;;;;;;;4.85;2.35;;;;;;;7.78;69.38;101872.19;4987452;28;20030;-74
2021/04/25 00:03:24;;;;;;;11.38;2.90;;;;;;;7.80;69.16;101871.91;4981531;28;20487;-74
2021/04/25 00:05:49;;;;;;;9.75;2.63;;;;;;;7.82;68.26;101865.13;4997617;28;20062;-74
2021/04/25 00:08:15;;;;;;;6.90;2.35;;;;;;;7.89;68.07;101865.50;4994757;28;20039;-74
2021/04/25 00:10:42;;;;;;;12.27;2.33;;;;;;;7.78;68.42;101858.78;4997778;28;20446;-74
2021/04/25 00:13:07;;;;;;;4.25;2.42;;;;;;;7.74;68.34;101868.53;4983909;28;20035;-74
2021/04/25 00:15:33;;;;;;;5.03;2.20;;;;;;;7.86;67.86;101862.63;4998851;28;20033;-74
2021/04/25 00:17:58;;;;;;;4.38;2.10;;;;;;;7.80;67.89;101859.28;4988555;28;20034;-75
2021/04/25 00:20:23;;;;;;;6.90;2.10;;;;;;;7.87;67.59;101861.53;4992079;28;20566;-75
2021/04/25 00:22:50;;;;;;;6.40;2.33;;;;;;;7.70;67.80;101864.13;4997769;28;20412;-74
2021/04/25 00:25:16;;;;;;;6.53;2.35;;;;;;;7.75;67.84;101859.41;4990157;28;20034;-74
2021/04/25 00:27:43;;;;;;;4.43;2.33;;;;;;;7.48;68.88;101854.19;4989975;28;20066;-74
2021/04/25 00:30:12;;;;;;;5.80;2.22;;;;;;;7.46;69.31;101856.38;4985792;28;20026;-75
2021/04/25 00:32:37;;;;;;;10.40;2.45;;;;;;;7.46;69.50;101856.38;4985065;28;20039;-74
2021/04/25 00:35:04;;;;;;;5.68;2.17;;;;;;;7.34;69.62;101863.38;4973725;28;20042;-75
2021/04/25 00:37:30;;;;;;;4.60;1.83;;;;;;;6.72;72.73;101854.25;4988406;28;20041;-74
2021/04/25 00:39:55;;;;;;;5.68;2.20;;;;;;;7.09;71.71;101860.16;5001414;28;20030;-74
2021/04/25 00:42:21;;;;;;;7.70;1.90;;;;;;;7.08;71.40;101855.88;4987370;28;20117;-74
2021/04/25 00:44:46;;;;;;;9.88;2.70;;;;;;;7.29;70.48;101854.34;4999139;28;20088;-74
2021/04/25 00:47:12;;;;;;;6.55;2.28;;;;;;;7.26;70.66;101841.53;4999991;28;20049;-74
2021/04/25 00:49:38;;;;;;;6.88;2.42;;;;;;;7.36;69.32;101850.44;4988752;28;20401;-74
2021/04/25 00:52:05;;;;;;;4.18;2.00;;;;;;;6.89;71.61;101836.47;4997092;28;20040;-75
2021/04/25 00:54:31;;;;;;;5.82;2.30;;;;;;;7.23;71.00;101836.81;4994400;28;20034;-75
2021/04/25 00:56:58;;;;;;;8.38;2.50;;;;;;;6.97;71.66;101843.81;4999814;28;20064;-74
2021/04/25 00:59:25;;;;;;;7.65;2.30;;;;;;;7.03;71.38;101849.84;5004350;28;20028;-74
2021/04/25 01:01:51;;;;;;;8.60;1.90;;;;;;;7.07;70.80;101845.47;4999500;28;20113;-74
2021/04/25 01:04:16;;;;;;;7.20;2.28;;;;;;;6.78;72.52;101845.81;4991369;28;20121;-74
2021/04/25 01:06:42;;;;;;;5.03;2.00;;;;;;;6.81;71.78;101837.22;5004691;28;20033;-75
2021/04/25 01:09:07;;;;;;;9.88;1.85;;;;;;;6.77;72.27;101846.94;4988760;28;20053;-75
2021/04/25 01:11:33;;;;;;;6.28;1.75;;;;;;;6.60;73.94;101833.34;4989285;28;20034;-74
2021/04/25 01:13:59;;;;;;;3.88;1.90;;;;;;;6.90;71.79;101840.75;4992810;28;20066;-74
2021/04/25 01:16:25;;;;;;;5.68;1.90;;;;;;;6.99;70.56;101846.19;5007520;28;20117;-74
2021/04/25 01:18:50;;;;;;;4.70;1.88;;;;;;;7.01;71.01;101842.13;4990983;28;20169;-74
2021/04/25 01:21:16;;;;;;;8.18;2.17;;;;;;;6.20;73.66;101845.63;4993434;28;20038;-74
2021/04/25 01:23:42;;;;;;;10.15;1.85;;;;;;;6.09;75.61;101854.94;4997574;28;20101;-74
2021/04/25 01:26:07;;;;;;;5.00;1.90;;;;;;;6.19;75.10;101849.38;4992379;28;20065;-74
2021/04/25 01:28:33;;;;;;;7.38;1.98;;;;;;;6.27;75.06;101851.38;5006379;28;20431;-75
2021/04/25 01:30:59;;;;;;;8.07;2.13;;;;;;;6.42;73.76;101857.53;5002648;28;20042;-74
2021/04/25 01:33:25;;;;;;;4.80;1.85;;;;;;;6.08;75.58;101847.97;4983795;28;20486;-75
2021/04/25 01:35:57;;;;;;;6.25;2.00;;;;;;;5.74;77.98;101844.00;5000884;28;20080;-75
2021/04/25 01:38:23;;;;;;;5.35;1.90;;;;;;;6.02;78.38;101845.72;4996564;28;20038;-74
2021/04/25 01:40:48;;;;;;;5.95;2.00;;;;;;;6.14;76.35;101844.13;4990019;28;20080;-76
2021/04/25 01:43:14;;;;;;;4.40;1.90;;;;;;;6.49;74.55;101848.03;4994467;28;20578;-74
2021/04/25 01:45:40;;;;;;;5.50;2.10;;;;;;;6.33;74.87;101849.38;5001166;28;20061;-74
2021/04/25 01:48:07;;;;;;;7.20;2.05;;;;;;;6.12;75.67;101843.63;5005552;28;20406;-74
2021/04/25 01:50:34;;;;;;;4.95;2.08;;;;;;;6.27;74.96;101839.91;4988020;28;20034;-74
2021/04/25 01:53:00;;;;;;;8.77;2.00;;;;;;;6.27;74.61;101846.03;4978740;28;20022;-74
2021/04/25 01:55:27;;;;;;;6.82;2.17;;;;;;;6.08;76.35;101847.97;4988616;28;20085;-74
2021/04/25 01:57:53;;;;;;;5.85;1.92;;;;;;;6.45;74.39;101852.38;4990850;28;20095;-75
2021/04/25 02:00:26;;;;;;;3.72;1.80;;;;;;;5.80;76.52;101842.84;4994631;28;20088;-75
2021/04/25 02:02:53;;;;;;;5.93;1.85;;;;;;;5.67;78.46;101838.25;4993385;28;20141;-75
2021/04/25 02:05:19;;;;;;;7.65;1.88;;;;;;;6.09;76.62;101844.25;4993235;28;20614;-74
2021/04/25 02:07:45;;;;;;;6.25;2.25;;;;;;;6.06;76.40;101850.16;4991391;28;20034;-74
2021/04/25 02:10:10;;;;;;;8.32;2.20;;;;;;;5.92;76.96;101846.66;4993146;28;20034;-74
2021/04/25 02:12:36;;;;;;;7.43;1.73;;;;;;;6.14;76.04;101844.13;4993594;28;20105;-74
2021/04/25 02:15:04;;;;;;;5.47;1.70;;;;;;;6.16;75.40;101841.97;4980199;28;20031;-76
2021/04/25 02:17:29;;;;;;;6.32;1.90;;;;;;;6.35;74.19;101837.31;4984079;28;20030;-74
2021/04/25 02:19:55;;;;;;;6.75;1.77;;;;;;;6.30;74.01;101842.78;4978854;28;20387;-74
2021/04/25 02:22:20;;;;;;;8.82;2.47;;;;;;;6.16;75.16;101841.16;4999402;28;20038;-75
2021/04/25 02:24:46;;;;;;;4.43;2.22;;;;;;;6.23;74.57;101836.22;4988308;28;20026;-75
2021/04/25 02:27:11;;;;;;;5.00;2.10;;;;;;;6.27;73.46;101832.66;4983183;28;20030;-74
2021/04/25 02:29:37;;;;;;;4.57;1.60;;;;;;;6.06;74.20;101844.00;4989388;28;20033;-74
2021/04/25 02:32:02;;;;;;;3.97;1.95;;;;;;;5.70;76.72;101841.13;4994454;28;20042;-75
2021/04/25 02:34:28;;;;;;;3.60;1.45;;;;;;;5.66;76.57;101834.00;4991943;28;20038;-74
2021/04/25 02:36:53;;;;;;;5.45;1.70;;;;;;;5.56;77.42;101831.47;4993443;28;20018;-74
2021/04/25 02:39:19;;;;;;;5.13;1.60;;;;;;;5.58;78.19;101824.75;4989838;28;20518;-74
2021/04/25 02:41:45;;;;;;;9.90;1.75;;;;;;;5.38;79.42;101825.09;4996735;28;20042;-76
2021/04/25 02:44:11;;;;;;;3.70;1.60;;;;;;;5.29;79.71;101830.28;4995747;28;20399;-74
2021/04/25 02:46:36;;;;;;;7.57;1.65;;;;;;;5.27;80.39;101826.31;4994114;28;20026;-74
2021/04/25 02:49:02;;;;;;;5.45;1.80;;;;;;;5.32;80.26;101818.25;4991445;28;20030;-74
2021/04/25 02:51:28;;;;;;;4.88;1.95;;;;;;;5.33;80.22;101819.81;4999610;28;20033;-74
2021/04/25 02:53:53;;;;;;;5.07;1.63;;;;;;;5.22;80.57;101823.75;4988949;28;20058;-75
2021/04/25 02:56:19;;;;;;;6.75;1.90;;;;;;;5.00;80.72;101816.31;4991004;28;20042;-74
2021/04/25 02:58:44;;;;;;;7.15;1.67;;;;;;;4.78;81.64;101815.28;4991903;28;20042;-74
2021/04/25 03:01:10;;;;;;;3.92;2.00;;;;;;;4.85;81.96;101826.38;4988291;28;20078;-75
2021/04/25 03:03:35;;;;;;;7.53;1.60;;;;;;;5.15;80.51;101810.75;4991632;28;20030;-75
2021/04/25 03:06:00;;;;;;;7.55;1.80;;;;;;;5.15;80.36;101807.31;4994526;28;20485;-74
2021/04/25 03:08:26;;;;;;;5.07;1.50;;;;;;;4.90;81.18;101811.09;4985854;28;20376;-74
2021/04/25 03:10:51;;;;;;;5.78;1.98;;;;;;;4.67;82.37;101817.28;4993108;28;20052;-75
2021/04/25 03:13:17;;;;;;;5.65;1.55;;;;;;;4.45;84.03;101819.69;4991254;28;20486;-74
2021/04/25 03:15:43;;;;;;;6.78;1.98;;;;;;;4.49;84.17;101818.06;4982951;28;20034;-75
2021/04/25 03:18:09;;;;;;;10.20;1.80;;;;;;;4.68;83.64;101815.41;4987746;28;20450;-74
2021/04/25 03:20:35;;;;;;;4.57;1.48;;;;;;;4.66;82.94;101818.38;5000758;28;20033;-74
2021/04/25 03:23:00;;;;;;;7.43;1.95;;;;;;;4.64;83.80;101815.19;5002028;28;20034;-74
2021/04/25 03:25:28;;;;;;;11.32;1.95;;;;;;;4.57;83.77;101828.06;4979251;28;20510;-74
2021/04/25 03:27:54;;;;;;;4.50;1.67;;;;;;;4.58;84.18;101822.47;4990421;28;20098;-74
2021/04/25 03:30:20;;;;;;;5.85;2.00;;;;;;;4.67;83.62;101817.28;4986161;28;20124;-74
2021/04/25 03:32:46;;;;;;;4.40;1.52;;;;;;;4.34;84.29;101815.53;4996339;28;20026;-74
2021/04/25 03:35:14;;;;;;;3.60;1.80;;;;;;;4.22;85.17;101815.94;4976371;28;20201;-74
2021/04/25 03:37:40;;;;;;;6.30;2.20;;;;;;;4.03;85.67;101820.41;4978994;28;20104;-74
2021/04/25 03:40:09;;;;;;;6.53;1.60;;;;;;;4.13;85.88;101830.97;4984923;28;20084;-74
2021/04/25 03:42:34;;;;;;;7.10;1.80;;;;;;;4.26;86.05;101821.50;5003081;28;20069;-74
2021/04/25 03:45:00;;;;;;;6.03;1.90;;;;;;;4.25;85.40;101818.06;5001791;28;20093;-74
2021/04/25 03:47:26;;;;;;;6.47;1.75;;;;;;;4.34;85.38;101813.69;4986719;28;20027;-74
2021/04/25 03:49:51;;;;;;;5.15;1.63;;;;;;;4.30;84.59;101817.19;4991455;28;20073;-75
2021/04/25 03:52:17;;;;;;;8.43;1.83;;;;;;;4.19;85.55;101821.84;4988165;28;20582;-74
2021/04/25 03:54:42;;;;;;;5.43;1.85;;;;;;;4.25;85.32;101825.25;4998981;28;20031;-75
2021/04/25 03:57:08;;;;;;;8.52;2.10;;;;;;;4.20;85.43;101823.41;5001907;28;20451;-74
2021/04/25 03:59:34;;;;;;;5.13;1.90;;;;;;;4.26;85.21;101832.97;4999656;28;20498;-74
2021/04/25 04:01:59;;;;;;;7.00;2.15;;;;;;;4.06;86.32;101827.84;4988099;28;20041;-75
2021/04/25 04:04:25;;;;;;;11.88;2.17;;;;;;;4.65;84.32;101824.78;4980220;28;20042;-74
2021/04/25 04:06:50;;;;;;;3.88;1.65;;;;;;;4.81;83.31;101823.50;4991020;28;20070;-74
2021/04/25 04:09:17;;;;;;;7.05;2.22;;;;;;;4.80;82.83;101827.25;4981756;28;20058;-75
2021/04/25 04:11:44;;;;;;;3.05;1.65;;;;;;;4.18;84.86;101824.81;4995396;28;20038;-74
2021/04/25 04:14:09;;;;;;;3.65;1.85;;;;;;;4.33;85.73;101828.09;4996345;28;20037;-74
2021/04/25 04:16:36;;;;;;;9.68;1.95;;;;;;;4.66;84.45;101831.72;4992567;28;20030;-74
2021/04/25 04:19:01;;;;;;;6.90;1.95;;;;;;;4.42;85.23;101829.06;4999279;28;20030;-74
2021/04/25 04:21:27;;;;;;;7.45;1.73;;;;;;;4.31;85.49;101832.91;5002526;28;20450;-74
2021/04/25 04:23:52;;;;;;;6.53;2.00;;;;;;;4.53;85.36;101841.19;4996925;28;20042;-75
2021/04/25 04:26:18;;;;;;;3.88;1.98;;;;;;;4.50;85.03;101832.97;5001569;28;20066;-73
2021/04/25 04:28:43;;;;;;;6.22;2.28;;;;;;;4.91;83.34;101843.94;4995710;28;20028;-74
2021/04/25 04:31:09;;;;;;;8.20;2.20;;;;;;;4.54;84.25;101849.97;4998169;28;20115;-74
2021/04/25 04:33:37;;;;;;;8.60;2.10;;;;;;;4.48;85.36;101840.44;4997290;28;20075;-74
2021/04/25 04:36:04;;;;;;;6.00;1.98;;;;;;;4.83;84.49;101848.03;5012018;28;20058;-75
2021/04/25 04:38:29;;;;;;;8.13;2.80;;;;;;;5.15;81.68;101840.09;4993601;28;20026;-74
2021/04/25 04:40:56;;;;;;;5.70;2.10;;;;;;;5.39;80.06;101843.50;4993368;28;20042;-74
2021/04/25 04:43:22;;;;;;;6.25;2.20;;;;;;;5.36;80.40;101837.94;4994732;28;20038;-75
2021/04/25 04:45:48;;;;;;;9.63;2.30;;;;;;;5.45;79.48;101833.53;5003544;28;20038;-74
2021/04/25 04:48:13;;;;;;;4.57;2.05;;;;;;;5.23;81.10;101842.13;4998157;28;20399;-74
2021/04/25 04:50:38;;;;;;;5.38;2.22;;;;;;;5.14;80.89;101840.41;4995576;28;20038;-74
2021/04/25 04:53:04;;;;;;;3.55;1.88;;;;;;;5.44;79.61;101846.09;5007093;28;20084;-75
2021/04/25 04:55:29;;;;;;;6.88;2.38;;;;;;;5.50;79.61;101842.25;5001466;28;20511;-75
2021/04/25 04:57:55;;;;;;;6.82;2.20;;;;;;;5.59;79.07;101850.41;4991338;28;20034;-74
2021/04/25 05:00:20;;;;;;;6.68;2.25;;;;;;;5.35;79.78;101849.69;4987101;28;20030;-76
2021/04/25 05:02:46;;;;;;;8.93;2.28;;;;;;;5.40;80.44;101853.09;5000891;28;20103;-76
2021/04/25 05:05:12;;;;;;;10.95;2.40;;;;;;;5.19;81.80;101848.31;5015036;28;20038;-75
2021/04/25 05:07:37;;;;;;;7.95;2.65;;;;;;;5.27;82.30;101853.81;5020087;28;20021;-75
2021/04/25 05:10:04;;;;;;;4.60;2.30;;;;;;;5.40;80.95;101852.31;4995280;28;20049;-76
2021/04/25 05:12:29;;;;;;;5.55;2.53;;;;;;;5.44;80.79;101854.09;5001434;28;20050;-76
2021/04/25 05:14:55;;;;;;;7.50;2.72;;;;;;;5.55;79.53;101857.41;5001184;28;20022;-76
2021/04/25 05:17:20;;;;;;;9.38;2.55;;;;;;;5.56;79.51;101855.53;5002658;28;20555;-72
2021/04/25 05:19:46;;;;;;;5.78;2.58;;;;;;;5.57;80.83;101849.91;4996696;28;20030;-75
2021/04/25 05:22:11;;;;;;;8.32;2.55;;;;;;;5.64;79.95;101857.53;4997511;28;20026;-75
2021/04/25 05:24:37;;;;;;;6.00;2.30;;;;;;;5.55;80.70;101864.63;5010042;28;20411;-75
2021/04/25 05:27:03;;;;;;;6.63;2.42;;;;;;;5.64;79.76;101868.22;5002374;28;20118;-76
2021/04/25 05:29:28;;;;;;;6.00;2.38;;;;;;;5.55;80.85;101867.31;5012393;28;20109;-74
2021/04/25 05:31:54;;;;;;;7.40;2.50;;;;;;;5.80;81.02;101865.03;5003154;28;20090;-75
2021/04/25 05:34:19;;;;;;;3.13;2.15;;;;;;;5.80;80.41;101867.69;5003236;28;20113;-76
2021/04/25 05:36:46;;;;;;;4.88;2.22;;;;;;;5.90;81.46;101869.44;5001037;28;20887;-75
2021/04/25 05:39:12;;;;;;;6.55;2.63;;;;;;;6.25;79.41;101866.91;4985815;28;20113;-75
2021/04/25 05:41:37;;;;;;;8.25;2.70;;;;;;;6.52;78.74;101871.53;4994412;28;20080;-75
2021/04/25 05:44:04;;;;;;;4.18;2.70;;;;;;;6.46;79.56;101869.22;5001223;28;20034;-76
2021/04/25 05:46:30;;;;;;;8.43;2.90;;;;;;;6.71;78.75;101880.25;4982405;28;20392;-75
2021/04/25 05:48:55;;;;;;;6.82;2.70;;;;;;;6.98;77.77;101874.84;4991755;28;20034;-75
2021/04/25 05:51:21;;;;;;;7.53;2.60;;;;;;;6.55;78.02;101880.81;4990328;28;20426;-75
2021/04/25 05:53:46;;;;;;;8.15;2.30;;;;;;;6.52;78.56;101884.09;4992393;28;20034;-75
2021/04/25 05:56:12;;;;;;;6.07;2.20;;;;;;;6.37;78.30;101887.84;4990696;28;20040;-76
2021/04/25 05:58:38;;;;;;;6.55;2.47;;;;;;;6.53;78.98;101897.16;4990062;28;20046;-75
2021/04/25 06:01:04;;;;;;;5.90;2.53;;;;;;;6.73;77.94;101891.44;4991821;28;20034;-75
2021/04/25 06:03:29;;;;;;;3.55;2.20;;;;;;;6.86;76.98;101895.19;5000132;28;20099;-75
2021/04/25 06:05:55;;;;;;;10.57;2.40;;;;;;;6.81;75.55;101898.78;4997686;28;20033;-75
2021/04/25 06:08:21;;;;;;;6.57;2.67;;;;;;;6.89;75.59;101900.72;5000255;28;20044;-76
2021/04/25 06:10:46;;;;;;;7.50;3.10;;;;;;;7.22;74.99;101902.19;4993281;28;20113;-75
2021/04/25 06:13:12;;;;;;;5.03;2.28;;;;;;;6.84;75.31;101903.53;4999071;28;20092;-75
2021/04/25 06:15:39;;;;;;;5.30;2.60;;;;;;;6.92;75.98;101900.16;4988715;28;20149;-75
2021/04/25 06:18:05;;;;;;;6.50;2.55;;;;;;;7.08;77.03;101903.31;4990849;28;20414;-75
2021/04/25 06:20:31;;;;;;;6.35;2.50;;;;;;;6.95;75.55;101907.56;4987579;28;20061;-76
2021/04/25 06:22:58;;;;;;;5.93;2.30;;;;;;;6.79;76.70;101909.00;4983836;28;20029;-75
2021/04/25 06:25:24;;;;;;;5.57;2.30;;;;;;;6.87;78.69;101905.59;4991833;28;20042;-75
2021/04/25 06:27:49;;;;;;;11.15;2.40;;;;;;;7.37;77.25;101903.75;4982568;28;20030;-76
2021/04/25 06:30:17;;;;;;;12.73;2.50;;;;;;;7.80;74.04;101910.22;4990146;28;20026;-75
2021/04/25 06:32:44;;;;;;;6.32;2.40;;;;;;;8.47;71.88;101910.19;4992645;28;20034;-75
2021/04/25 06:35:12;;;;;;;12.77;2.35;;;;;;;8.72;69.63;101914.88;4984259;28;20030;-75
2021/04/25 06:37:38;;;;;;;3.25;1.80;;;;;;;8.99;67.38;101926.19;4988333;28;20022;-76
2021/04/25 06:40:04;;;;;;;8.73;2.30;;;;;;;9.13;66.72;101918.00;4991802;28;20088;-75
2021/04/25 06:42:31;;;;;;;2.75;2.00;;;;;;;9.10;65.95;101927.47;4983090;28;20122;-76
2021/04/25 06:44:57;;;;;;;7.53;2.13;;;;;;;9.10;65.04;101919.41;4982040;28;20030;-75
2021/04/25 06:47:23;;;;;;;4.53;1.88;;;;;;;9.36;64.00;101926.72;4991493;28;20053;-75
2021/04/25 06:49:48;;;;;;;3.03;1.85;;;;;;;9.40;63.81;101919.59;4997020;28;20053;-76
2021/04/25 06:52:14;;;;;;;7.25;2.10;;;;;;;9.66;60.21;101928.44;4985048;28;20407;-76
2021/04/25 06:54:39;;;;;;;3.72;1.70;;;;;;;9.84;61.89;101922.75;4979764;28;20147;-75
2021/04/25 06:57:06;;;;;;;3.55;1.40;;;;;;;10.22;59.08;101933.66;4987951;28;20026;-76
2021/04/25 06:59:32;;;;;;;5.75;1.70;;;;;;;10.33;58.28;101926.03;4989927;28;20435;-76
2021/04/25 07:01:58;;;;;;;5.57;1.60;;;;;;;10.34;58.12;101924.91;4982876;28;20046;-75
2021/04/25 07:04:23;;;;;;;3.40;1.50;;;;;;;10.51;57.90;101936.41;4988018;28;20034;-75
2021/04/25 07:06:49;;;;;;;3.17;1.10;;;;;;;11.19;56.93;101929.91;4987026;28;20123;-75
2021/04/25 07:09:14;;;;;;;3.72;1.40;;;;;;;11.34;54.69;101931.25;4992054;28;20026;-75
2021/04/25 07:11:40;;;;;;;3.35;1.10;;;;;;;11.61;53.60;101928.78;4983759;28;20604;-75
2021/04/25 07:14:05;;;;;;;6.57;1.15;;;;;;;12.00;52.38;101924.06;4990520;28;20380;-75
2021/04/25 07:16:31;;;;;;;4.30;1.42;;;;;;;12.21;51.49;101933.69;4985811;28;20464;-76
2021/04/25 07:18:56;;;;;;;2.30;1.05;;;;;;;12.47;49.31;101934.19;4991604;28;20487;-76
2021/04/25 07:21:22;;;;;;;2.85;1.23;;;;;;;12.48;49.39;101941.19;5000220;28;20049;-76
2021/04/25 07:23:47;;;;;;;3.03;0.90;;;;;;;12.43;49.36;101946.78;4992369;28;20026;-75
2021/04/25 07:26:13;;;;;;;2.90;1.00;;;;;;;12.53;47.91;101948.25;4984817;28;20034;-76
2021/04/25 07:28:39;;;;;;;1.90;0.95;;;;;;;12.71;47.63;101944.25;5009420;28;20449;-75
2021/04/25 07:31:05;;;;;;;2.15;0.80;;;;;;;13.06;47.27;101941.91;4993962;28;20030;-75
2021/04/25 07:33:32;;;;;;;0.93;0.60;;;;;;;13.42;46.76;101952.66;4997124;28;20034;-75
2021/04/25 07:35:57;;;;;;;3.95;0.77;;;;;;;13.42;47.03;101948.06;4983474;28;20038;-75
2021/04/25 07:38:23;;;;;;;1.33;0.70;;;;;;;13.69;46.34;101961.94;4991108;28;20034;-75
2021/04/25 07:40:49;;;;;;;3.88;0.60;;;;;;;13.85;45.02;101955.47;4996363;28;20042;-75
2021/04/25 07:43:14;;;;;;;1.55;0.40;;;;;;;13.66;42.64;101958.03;5003555;28;20422;-75
2021/04/25 07:45:40;;;;;;;2.38;0.60;;;;;;;13.68;43.03;101958.47;4995463;28;20031;-75
2021/04/25 07:48:06;;;;;;;1.33;0.50;;;;;;;13.97;43.87;101966.28;4994161;28;20053;-75
2021/04/25 07:50:32;;;;;;;4.30;0.63;;;;;;;14.37;43.33;101960.78;4990450;28;20088;-74
2021/04/25 07:52:58;;;;;;;0.70;0.40;;;;;;;13.94;41.21;101961.53;5002148;28;20503;-74
2021/04/25 07:55:23;;;;;;;5.32;0.60;;;;;;;14.18;41.72;101968.78;4997140;28;20055;-74
2021/04/25 07:57:49;;;;;;;1.55;0.52;;;;;;;14.27;42.31;101962.09;4995099;28;20430;-75
2021/04/25 08:00:35;;;;;;;4.00;0.60;;;;;;;14.26;41.65;101957.00;4995446;28;20042;-74
2021/04/25 08:03:01;;;;;;;1.17;0.30;;;;;;;14.50;41.13;101956.09;4972556;28;20059;-74
2021/04/25 08:05:26;;;;;;;2.40;0.60;;;;;;;14.72;41.04;101958.19;4967370;28;20043;-74
2021/04/25 08:07:52;;;;;;;0.95;0.40;;;;;;;14.58;41.53;101958.63;4964558;28;20059;-75
2021/04/25 08:10:17;;;;;;;1.80;0.50;;;;;;;14.65;41.93;101955.31;4966619;28;20051;-74
2021/04/25 08:12:43;;;;;;;0.50;0.50;;;;;;;14.48;41.89;101961.84;4961454;28;20039;-75
2021/04/25 08:15:09;;;;;;;0.40;0.40;;;;;;;14.17;41.18;101959.84;4960221;28;20038;-76
2021/04/25 08:17:35;;;;;;;0.50;0.40;;;;;;;14.55;41.07;101956.63;4961079;28;20038;-74
2021/04/25 08:20:00;;;;;;;4.53;0.65;;;;;;;14.70;42.34;101957.75;4964816;28;20459;-75
2021/04/25 08:22:26;;;;;;;2.17;0.60;;;;;;;14.76;41.92;101965.28;4970119;28;20557;-74
2021/04/25 08:24:52;;;;;;;1.55;0.40;;;;;;;14.46;41.02;101970.31;4969402;28;20554;-75
2021/04/25 08:27:17;;;;;;;1.13;0.40;;;;;;;14.58;40.46;101963.25;4968431;28;20053;-74
2021/04/25 08:29:42;;;;;;;3.03;0.30;;;;;;;14.37;41.25;101967.00;4967894;28;20027;-76
2021/04/25 08:32:08;;;;;;;0.40;0.30;;;;;;;13.94;39.65;101975.06;4954751;28;20035;-74
2021/04/25 08:34:34;;;;;;;4.18;0.50;;;;;;;14.13;40.27;101964.38;4968431;28;20043;-75
2021/04/25 08:37:00;;;;;;;1.80;0.50;;;;;;;14.35;41.73;101969.28;4972072;28;20070;-75
2021/04/25 08:39:25;;;;;;;0.85;0.40;;;;;;;14.34;39.65;101973.09;4978742;28;20038;-74
2021/04/25 08:41:54;;;;;;;0.68;0.22;;;;;;;14.81;38.67;101969.63;4981730;28;20376;-74
2021/04/25 08:44:20;;;;;;;3.42;0.40;;;;;;;15.04;39.57;101967.91;4997395;28;20041;-74
2021/04/25 08:46:48;;;;;;;1.35;0.30;;;;;;;15.16;37.08;101975.91;4981773;28;20042;-74
2021/04/25 08:49:18;;;;;;;1.25;0.38;;;;;;;15.05;36.53;101969.44;4991052;28;20030;-74
2021/04/25 08:51:44;;;;;;;0.52;0.40;;;;;;;14.77;37.90;101979.63;4982739;28;20113;-74
2021/04/25 08:54:12;;;;;;;0.38;0.38;;;;;;;15.01;37.62;101976.72;4990717;28;20030;-74
2021/04/25 08:56:38;;;;;;;0.88;0.40;;;;;;;14.82;37.11;101976.66;4985091;28;20402;-75
2021/04/25 08:59:05;;;;;;;3.15;0.52;;;;;;;14.92;37.03;101979.63;4990766;28;20038;-75
2021/04/25 09:01:30;;;;;;;0.80;0.38;;;;;;;15.04;37.78;101974.09;4990561;28;20044;-74
2021/04/25 09:03:56;;;;;;;0.70;0.30;;;;;;;14.60;36.50;101971.81;4989423;28;20029;-75
2021/04/25 09:06:22;;;;;;;0.75;0.40;;;;;;;15.12;37.00;101975.03;4981267;28;20034;-74
2021/04/25 09:08:56;;;;;;;1.20;0.52;;;;;;;15.81;37.10;101969.63;4992547;28;20046;-75
2021/04/25 09:11:28;;;;;;;1.65;0.60;;;;;;;15.85;35.23;101978.59;4994264;28;20479;-74
2021/04/25 09:14:14;;;;;;;0.47;0.47;;;;;;;15.43;36.06;101985.88;4981145;28;20030;-74
2021/04/25 09:16:41;;;;;;;0.80;0.60;;;;;;;15.26;36.67;101978.88;4993107;28;20045;-74
2021/04/25 09:19:06;;;;;;;0.80;0.40;;;;;;;15.10;37.72;101982.75;4999827;28;20038;-75
2021/04/25 09:21:32;;;;;;;6.65;0.80;;;;;;;15.07;38.39;101986.16;4988141;28;20494;-75
2021/04/25 09:24:21;;;;;;;2.25;0.63;;;;;;;14.62;39.39;101991.25;4990664;28;20042;-75
2021/04/25 09:26:47;;;;;;;3.65;0.60;;;;;;;14.32;39.57;101988.91;4984673;28;20026;-74
2021/04/25 09:29:12;;;;;;;1.08;0.55;;;;;;;14.43;39.32;101986.50;5000351;28;20448;-74
2021/04/25 09:31:41;;;;;;;2.08;0.50;;;;;;;14.23;39.84;101984.75;4990620;28;20038;-75
2021/04/25 09:34:07;;;;;;;1.23;0.75;;;;;;;14.42;40.65;101993.84;4994328;28;20571;-75
2021/04/25 09:36:33;;;;;;;1.08;0.55;;;;;;;14.37;40.32;101988.69;4987981;28;20114;-75
2021/04/25 09:39:13;;;;;;;1.75;0.65;;;;;;;14.26;40.00;101998.44;4993966;28;20045;-75
2021/04/25 09:41:39;;;;;;;1.60;1.50;;;;;;;13.91;41.38;101994.72;4992079;28;20395;-75
2021/04/25 09:44:05;;;;;;;1.88;1.48;;;;;;;13.86;41.21;101989.53;4991437;28;20026;-75
2021/04/25 09:46:55;;;;;;;4.45;2.40;;;;;;;13.60;42.52;102000.00;4982156;28;20038;-75
2021/04/25 09:49:48;;;;;;;3.65;1.00;;;;;;;13.94;42.77;101995.94;4982124;28;20114;-74
2021/04/25 09:52:31;;;;;;;0.90;0.77;;;;;;;13.95;42.25;101992.91;4990537;28;20057;-74
2021/04/25 09:55:16;;;;;;;2.38;0.70;;;;;;;13.81;42.59;101989.78;4992795;28;20109;-74
2021/04/25 09:57:42;;;;;;;1.85;0.68;;;;;;;13.78;42.93;102003.25;4993407;28;20699;-74
2021/04/25 10:00:09;;;;;;;2.08;0.80;;;;;;;13.83;42.55;102001.06;4995294;28;20061;-74
2021/04/25 10:02:54;;;;;;;2.97;0.80;;;;;;;13.66;43.22;102000.56;4986486;28;20030;-75
2021/04/25 10:05:19;;;;;;;1.77;0.80;;;;;;;13.23;41.27;101993.84;4991675;28;20042;-74
2021/04/25 10:07:45;;;;;;;2.35;0.90;;;;;;;13.38;41.36;101993.16;4993120;28;20026;-74
2021/04/25 10:10:14;;;;;;;2.70;0.70;;;;;;;13.54;41.64;101995.94;4999559;28;20041;-74
2021/04/25 10:12:40;;;;;;;3.85;2.28;;;;;;;13.64;40.98;102008.22;4978769;28;20030;-74
2021/04/25 10:15:06;;;;;;;3.75;1.20;;;;;;;13.61;41.47;102003.50;4985171;28;20029;-74
2021/04/25 10:17:32;;;;;;;2.33;1.40;;;;;;;13.58;40.90;102000.34;4988656;28;20030;-74
2021/04/25 10:19:58;;;;;;;1.75;1.00;;;;;;;13.07;40.88;101994.84;4989889;28;20125;-74
2021/04/25 10:22:24;;;;;;;1.75;0.80;;;;;;;13.21;41.92;102000.72;4985697;28;20120;-74
2021/04/25 10:24:49;;;;;;;0.93;0.85;;;;;;;13.37;42.13;102004.31;4998097;28;20046;-74
2021/04/25 10:27:15;;;;;;;1.85;1.08;;;;;;;13.66;40.52;102004.06;5000867;28;20033;-74
2021/04/25 10:29:50;;;;;;;1.20;0.95;;;;;;;13.88;40.10;101995.41;4989852;28;20037;-73
2021/04/25 10:32:18;;;;;;;0.85;0.70;;;;;;;14.00;38.99;101989.94;4985214;28;20077;-74
2021/04/25 10:34:44;;;;;;;0.90;0.47;;;;;;;14.58;38.24;101987.66;4999685;28;20064;-74
2021/04/25 10:37:11;;;;;;;1.27;0.60;;;;;;;15.16;37.15;101976.69;4997167;28;20072;-74
2021/04/25 10:39:45;;;;;;;1.00;0.60;;;;;;;15.79;36.47;101971.91;4997753;28;20022;-74
2021/04/25 10:42:20;;;;;;;3.00;1.30;;;;;;;16.26;36.05;101982.50;4998219;28;20037;-74
2021/04/25 10:47:36;;;;;;;0.82;0.50;;;;;;;16.77;35.15;101981.13;4990938;28;20065;-74
2021/04/25 10:50:24;;;;;;;0.50;0.50;;;;;;;17.31;33.75;101982.72;4997395;28;20026;-74
2021/04/25 10:52:51;;;;;;;1.25;0.47;;;;;;;17.66;33.30;101980.53;4982639;28;20110;-74
2021/04/25 10:55:20;;;;;;;2.25;0.50;;;;;;;17.77;32.66;101984.97;4987862;28;20022;-74
2021/04/25 10:57:56;;;;;;;2.45;0.40;;;;;;;18.07;33.47;101989.59;4998397;28;20034;-74
2021/04/25 11:00:34;;;;;;;0.90;0.60;;;;;;;18.46;31.42;101977.19;4991505;28;20403;-74
2021/04/25 11:03:20;;;;;;;1.50;0.50;;;;;;;18.71;30.93;101983.66;4990132;28;20049;-74
2021/04/25 11:05:50;;;;;;;1.63;0.40;;;;;;;18.47;30.74;101981.47;4998881;28;20081;-74
2021/04/25 11:08:16;;;;;;;0.70;0.60;;;;;;;18.28;30.62;101978.91;4985193;28;20068;-74
2021/04/25 11:10:53;;;;;;;1.88;0.43;;;;;;;17.97;31.98;101975.47;4987108;28;20508;-74
2021/04/25 11:13:33;;;;;;;0.80;0.45;;;;;;;18.15;32.22;101981.13;4990112;28;20030;-74
2021/04/25 11:16:02;;;;;;;0.77;0.32;;;;;;;18.24;31.18;101978.09;4999744;28;20627;-74
2021/04/25 11:18:50;;;;;;;1.58;0.40;;;;;;;17.85;30.08;101977.66;4983422;28;20503;-74
2021/04/25 11:23:59;;;;;;;0.60;0.50;;;;;;;16.66;31.26;101979.38;5007124;28;20038;-74
2021/04/25 11:26:45;;;;;;;1.25;0.50;;;;;;;16.81;31.90;101968.38;4993257;28;20031;-74
2021/04/25 11:29:21;;;;;;;0.65;0.30;;;;;;;17.56;30.68;101971.06;4980996;28;20070;-74
2021/04/25 11:31:48;;;;;;;0.47;0.40;;;;;;;17.85;29.48;101977.66;4977278;28;20495;-73
2021/04/25 11:34:23;;;;;;;1.42;0.40;;;;;;;18.22;29.12;101972.22;4991607;28;20517;-74